createdAt,value
2022-12-15T00:00:45.461Z,12.70
2022-12-15T00:03:31.185Z,13.82
2022-12-15T00:06:18.716Z,12.98
2022-12-15T00:09:08.544Z,12.80
2022-12-15T00:11:58.144Z,11.55
2022-12-15T00:14:43.589Z,11.50
2022-12-15T00:17:40.992Z,11.52
2022-12-15T00:20:29.600Z,11.57
2022-12-15T00:23:14.986Z,10.52
2022-12-15T00:26:03.564Z,13.35
2022-12-15T00:28:49.002Z,15.20
2022-12-15T00:31:37.467Z,12.20
2022-12-15T00:34:22.884Z,12.18
2022-12-15T00:37:08.243Z,12.38
2022-12-15T00:39:35.015Z,11.40
2022-12-15T00:42:01.649Z,12.70
2022-12-15T00:44:31.150Z,13.70
2022-12-15T00:46:58.083Z,12.95
2022-12-15T00:49:47.470Z,12.02
2022-12-15T00:52:36.894Z,12.75
2022-12-15T00:55:23.524Z,12.63
2022-12-15T00:58:14.582Z,12.48
2022-12-15T01:01:08.535Z,13.40
2022-12-15T01:04:03.971Z,11.27
2022-12-15T01:06:50.798Z,12.23
2022-12-15T01:09:36.170Z,13.05
2022-12-15T01:12:23.589Z,12.32
2022-12-15T01:15:11.185Z,11.98
2022-12-15T01:17:57.019Z,11.88
2022-12-15T01:20:23.619Z,12.93
2022-12-15T01:22:53.030Z,13.70
2022-12-15T01:25:23.390Z,12.68
2022-12-15T01:27:52.831Z,13.82
2022-12-15T01:30:27.175Z,13.63
2022-12-15T01:32:53.909Z,13.80
2022-12-15T01:35:21.400Z,14.65
2022-12-15T01:37:49.970Z,14.18
2022-12-15T01:40:38.630Z,12.93
2022-12-15T01:43:24.648Z,13.85
2022-12-15T01:46:03.490Z,13.18
2022-12-15T01:48:53.833Z,10.15
2022-12-15T01:51:39.422Z,13.82
2022-12-15T01:54:15.231Z,15.80
2022-12-15T01:56:48.596Z,14.40
2022-12-15T01:59:25.200Z,15.25
2022-12-15T02:01:54.299Z,14.75
2022-12-15T02:04:24.706Z,14.23
2022-12-15T02:06:56.276Z,14.88
2022-12-15T02:09:33.816Z,16.27
2022-12-15T02:12:35.455Z,14.52
2022-12-15T02:15:05.165Z,13.80
2022-12-15T02:18:14.665Z,14.35
2022-12-15T02:20:47.072Z,13.85
2022-12-15T02:23:39.701Z,14.82
2022-12-15T02:26:17.889Z,13.25
2022-12-15T02:29:23.489Z,13.95
2022-12-15T02:32:04.158Z,14.18
2022-12-15T02:34:54.134Z,14.15
2022-12-15T02:37:26.095Z,14.02
2022-12-15T02:39:54.925Z,14.40
2022-12-15T02:42:25.536Z,13.50
2022-12-15T02:44:57.470Z,14.73
2022-12-15T02:47:52.250Z,15.45
2022-12-15T02:50:51.376Z,14.98
2022-12-15T02:53:39.788Z,14.13
2022-12-15T02:56:36.789Z,13.93
2022-12-15T02:59:15.683Z,14.30
2022-12-15T03:02:03.721Z,14.70
2022-12-15T03:04:33.964Z,14.07
2022-12-15T03:07:08.020Z,13.88
2022-12-15T03:09:34.970Z,13.75
2022-12-15T03:12:05.880Z,14.52
2022-12-15T03:14:34.939Z,15.52
2022-12-15T03:17:01.677Z,13.32
2022-12-15T03:19:30.527Z,15.32
2022-12-15T03:21:57.103Z,16.27
2022-12-15T03:24:25.960Z,14.32
2022-12-15T03:26:54.846Z,14.43
2022-12-15T03:29:23.892Z,15.13
2022-12-15T03:31:53.309Z,14.35
2022-12-15T03:34:20.074Z,13.70
2022-12-15T03:36:46.757Z,13.38
2022-12-15T03:39:17.650Z,13.30
2022-12-15T03:41:52.111Z,14.50
2022-12-15T03:44:18.684Z,15.80
2022-12-15T03:46:47.447Z,14.93
2022-12-15T03:49:17.895Z,14.57
2022-12-15T03:51:45.019Z,15.00
2022-12-15T03:54:16.809Z,14.43
2022-12-15T03:59:12.252Z,13.07
2022-12-15T04:01:49.869Z,16.60
2022-12-15T04:04:23.633Z,16.52
2022-12-15T04:06:57.973Z,15.43
2022-12-15T04:09:25.442Z,14.25
2022-12-15T04:11:55.094Z,15.55
2022-12-15T04:14:27.033Z,15.23
2022-12-15T04:19:49.333Z,11.80
2022-12-15T04:22:18.920Z,16.02
2022-12-15T04:25:10.352Z,15.32
2022-12-15T04:28:01.395Z,15.52
2022-12-15T04:30:48.570Z,15.73
2022-12-15T04:33:38.838Z,16.48
2022-12-15T04:36:27.841Z,17.13
2022-12-15T04:39:16.704Z,16.87
2022-12-15T04:42:02.228Z,15.98
2022-12-15T04:44:50.070Z,18.48
2022-12-15T04:47:35.504Z,16.42
2022-12-15T04:50:21.434Z,15.75
2022-12-15T04:53:09.372Z,14.95
2022-12-15T04:55:57.219Z,16.75
2022-12-15T04:58:49.523Z,17.08
2022-12-15T05:01:36.647Z,16.83
2022-12-15T05:04:23.968Z,15.82
2022-12-15T05:07:11.484Z,16.70
2022-12-15T05:10:02.580Z,15.27
2022-12-15T05:12:50.442Z,16.15
2022-12-15T05:15:35.987Z,15.65
2022-12-15T05:18:21.350Z,16.67
2022-12-15T05:21:08.684Z,16.48
2022-12-15T05:23:54.174Z,15.50
2022-12-15T05:26:39.999Z,16.42
2022-12-15T05:29:26.409Z,17.83
2022-12-15T05:31:54.650Z,16.35
2022-12-15T05:34:27.705Z,18.55
2022-12-15T05:36:56.209Z,16.83
2022-12-15T05:39:24.080Z,17.30
2022-12-15T05:41:51.992Z,17.15
2022-12-15T05:44:19.072Z,17.42
2022-12-15T05:46:46.605Z,17.33
2022-12-15T05:49:15.959Z,16.35
2022-12-15T05:51:44.423Z,17.15
2022-12-15T05:54:13.160Z,17.60
2022-12-15T05:56:39.759Z,17.05
2022-12-15T05:59:06.402Z,17.70
2022-12-15T06:01:33.201Z,17.20
2022-12-15T06:03:59.976Z,16.30
2022-12-15T06:06:26.615Z,17.10
2022-12-15T06:08:53.337Z,16.92
2022-12-15T06:11:22.072Z,15.88
2022-12-15T06:13:49.018Z,18.13
2022-12-15T06:16:18.223Z,15.40
2022-12-15T06:18:50.826Z,16.58
2022-12-15T06:21:19.948Z,16.33
2022-12-15T06:23:47.875Z,16.73
2022-12-15T06:26:21.806Z,16.52
2022-12-15T06:28:49.576Z,17.52
2022-12-15T06:31:18.187Z,17.67
2022-12-15T06:33:44.899Z,16.38
2022-12-15T06:36:14.080Z,16.95
2022-12-15T06:38:44.399Z,16.40
2022-12-15T06:41:13.884Z,18.20
2022-12-15T06:43:41.367Z,17.02
2022-12-15T06:46:08.948Z,15.98
2022-12-15T06:48:35.997Z,17.50
2022-12-15T06:51:09.726Z,16.70
2022-12-15T06:53:45.390Z,15.93
2022-12-15T06:56:35.968Z,16.45
2022-12-15T06:59:07.148Z,16.23
2022-12-15T07:01:33.978Z,16.35
2022-12-15T07:04:02.726Z,17.27
2022-12-15T07:06:37.316Z,17.27
2022-12-15T07:09:07.296Z,15.82
2022-12-15T07:11:34.039Z,17.00
2022-12-15T07:14:00.690Z,17.70
2022-12-15T07:16:28.427Z,16.52
2022-12-15T07:18:55.083Z,16.75
2022-12-15T07:21:21.742Z,17.23
2022-12-15T07:23:57.048Z,17.40
2022-12-15T07:26:24.713Z,16.35
2022-12-15T07:28:52.803Z,16.83
2022-12-15T07:31:19.486Z,18.20
2022-12-15T07:33:48.077Z,16.55
2022-12-15T07:36:14.693Z,20.40
2022-12-15T07:38:41.339Z,18.35
2022-12-15T07:41:09.765Z,16.35
2022-12-15T07:43:37.451Z,17.15
2022-12-15T07:46:05.415Z,16.92
2022-12-15T07:48:32.788Z,17.02
2022-12-15T07:51:09.609Z,17.65
2022-12-15T07:53:39.417Z,16.92
2022-12-15T07:56:08.418Z,17.45
2022-12-15T07:58:37.295Z,17.27
2022-12-15T08:01:07.252Z,17.52
2022-12-15T08:03:35.788Z,17.10
2022-12-15T08:06:11.157Z,17.83
2022-12-15T08:08:38.603Z,18.85
2022-12-15T08:11:06.325Z,18.70
2022-12-15T08:16:23.791Z,17.85
2022-12-15T08:18:50.542Z,16.67
2022-12-15T08:21:17.768Z,16.77
2022-12-15T08:23:44.837Z,17.73
2022-12-15T08:26:14.337Z,19.67
2022-12-15T08:28:42.294Z,17.88
2022-12-15T08:31:16.112Z,16.85
2022-12-15T08:33:43.896Z,16.65
2022-12-15T08:36:13.834Z,18.30
2022-12-15T08:38:42.775Z,16.95
2022-12-15T08:41:18.070Z,17.65
2022-12-15T08:43:48.967Z,19.40
2022-12-15T08:46:28.248Z,17.58
2022-12-15T08:48:55.436Z,17.88
2022-12-15T08:51:23.626Z,17.30
2022-12-15T08:53:54.932Z,17.23
2022-12-15T08:56:22.693Z,16.48
2022-12-15T08:58:50.928Z,16.45
2022-12-15T09:01:24.186Z,17.58
2022-12-15T09:03:55.463Z,18.08
2022-12-15T09:06:28.181Z,13.55
2022-12-15T09:09:00.172Z,21.23
2022-12-15T09:11:28.012Z,19.98
2022-12-15T09:13:54.970Z,21.27
2022-12-15T09:16:22.030Z,21.05
2022-12-15T09:18:54.341Z,19.15
2022-12-15T09:21:23.069Z,16.77
2022-12-15T09:23:51.684Z,18.42
2022-12-15T09:26:20.271Z,19.92
2022-12-15T09:28:50.766Z,18.83
2022-12-15T09:31:28.597Z,17.63
2022-12-15T09:33:59.043Z,17.17
2022-12-15T09:36:26.849Z,20.35
2022-12-15T09:38:56.664Z,18.90
2022-12-15T09:41:32.688Z,19.40
2022-12-15T09:44:01.994Z,20.92
2022-12-15T09:46:53.981Z,19.65
2022-12-15T09:49:29.693Z,19.42
2022-12-15T09:52:11.612Z,19.13
2022-12-15T09:57:15.538Z,18.60
2022-12-15T10:00:10.584Z,19.35
2022-12-15T10:03:02.156Z,20.40
2022-12-15T10:06:15.923Z,18.73
2022-12-15T10:08:53.786Z,18.25
2022-12-15T10:11:29.591Z,19.45
2022-12-15T10:14:11.029Z,18.33
2022-12-15T10:17:02.620Z,19.10
2022-12-15T10:19:39.328Z,21.15
2022-12-15T10:22:10.699Z,20.75
2022-12-15T10:25:08.667Z,21.48
2022-12-15T10:27:55.796Z,18.98
2022-12-15T10:30:22.782Z,21.73
2022-12-15T10:33:19.312Z,20.80
2022-12-15T10:35:47.087Z,18.95
2022-12-15T10:38:29.534Z,19.63
2022-12-15T10:40:59.637Z,21.40
2022-12-15T10:43:37.028Z,19.55
2022-12-15T10:46:13.485Z,21.85
2022-12-15T10:48:42.676Z,20.85
2022-12-15T10:51:31.525Z,20.88
2022-12-15T10:54:09.977Z,19.10
2022-12-15T10:56:57.382Z,20.63
2022-12-15T10:59:28.499Z,22.23
2022-12-15T11:01:55.394Z,21.33
2022-12-15T11:04:27.519Z,21.92
2022-12-15T11:09:36.576Z,18.08
2022-12-15T11:12:38.759Z,19.70
2022-12-15T11:15:31.761Z,19.50
2022-12-15T11:18:13.460Z,19.52
2022-12-15T11:20:48.811Z,14.27
2022-12-15T11:23:46.706Z,19.95
2022-12-15T11:26:40.167Z,20.05
2022-12-15T11:29:23.845Z,15.53
2022-12-15T11:31:52.364Z,20.92
2022-12-15T11:34:25.577Z,21.25
2022-12-15T11:37:36.165Z,21.52
2022-12-15T11:40:22.073Z,20.85
2022-12-15T11:43:18.429Z,18.88
2022-12-15T11:46:18.172Z,20.30
2022-12-15T11:48:47.607Z,18.73
2022-12-15T11:51:25.906Z,20.83
2022-12-15T11:54:07.610Z,21.65
2022-12-15T11:56:46.090Z,20.02
2022-12-15T11:59:41.885Z,20.10
2022-12-15T12:02:33.451Z,21.33
2022-12-15T12:05:43.907Z,19.67
2022-12-15T12:08:30.548Z,19.25
2022-12-15T12:11:18.312Z,19.58
2022-12-15T12:14:11.456Z,20.48
2022-12-15T12:16:44.739Z,19.27
2022-12-15T12:19:16.165Z,20.25
2022-12-15T12:21:45.884Z,19.38
2022-12-15T12:24:26.273Z,20.85
2022-12-15T12:27:23.067Z,20.63
2022-12-15T12:30:00.528Z,19.33
2022-12-15T12:32:54.557Z,19.33
2022-12-15T12:35:38.405Z,19.73
2022-12-15T12:38:07.107Z,19.45
2022-12-15T12:41:05.858Z,20.52
2022-12-15T12:43:34.527Z,19.52
2022-12-15T12:46:39.061Z,21.92
2022-12-15T12:49:18.755Z,20.92
2022-12-15T12:51:54.209Z,20.58
2022-12-15T12:54:34.956Z,19.33
2022-12-15T12:57:22.580Z,20.25
2022-12-15T12:59:58.720Z,21.02
2022-12-15T13:02:25.593Z,22.45
2022-12-15T13:05:21.994Z,21.13
2022-12-15T13:07:56.769Z,19.08
2022-12-15T13:10:25.187Z,22.23
2022-12-15T13:12:59.121Z,20.60
2022-12-15T13:15:50.866Z,22.77
2022-12-15T13:20:50.550Z,20.17
2022-12-15T13:23:23.118Z,20.77
2022-12-15T13:25:55.901Z,21.05
2022-12-15T13:28:31.493Z,21.80
2022-12-15T13:31:16.622Z,22.30
2022-12-15T13:33:50.996Z,24.45
2022-12-15T13:36:36.349Z,26.40
2022-12-15T13:39:16.433Z,25.88
2022-12-15T13:42:15.298Z,23.17
2022-12-15T13:44:43.850Z,22.95
2022-12-15T13:47:29.652Z,23.65
2022-12-15T13:50:12.195Z,20.60
2022-12-15T13:55:39.104Z,20.70
2022-12-15T13:58:17.339Z,20.20
2022-12-15T14:00:54.104Z,22.55
2022-12-15T14:03:21.240Z,20.23
2022-12-15T14:05:56.630Z,22.02
2022-12-15T14:08:25.113Z,21.27
2022-12-15T14:10:54.365Z,21.92
2022-12-15T14:13:37.887Z,21.20
2022-12-15T14:16:19.543Z,21.25
2022-12-15T14:19:22.639Z,21.10
2022-12-15T14:21:51.296Z,20.65
2022-12-15T14:24:45.772Z,21.88
2022-12-15T14:27:28.096Z,21.80
2022-12-15T14:30:24.123Z,20.13
2022-12-15T14:32:56.288Z,21.00
2022-12-15T14:35:36.304Z,22.05
2022-12-15T14:38:07.135Z,21.20
2022-12-15T14:40:39.681Z,21.48
2022-12-15T14:43:11.655Z,21.00
2022-12-15T14:45:38.330Z,22.45
2022-12-15T14:51:00.112Z,20.85
2022-12-15T14:53:32.888Z,20.88
2022-12-15T14:56:20.378Z,21.90
2022-12-15T14:59:05.803Z,21.40
2022-12-15T15:01:57.718Z,20.73
2022-12-15T15:04:32.339Z,21.40
2022-12-15T15:07:02.240Z,21.05
2022-12-15T15:09:41.355Z,19.92
2022-12-15T15:12:14.265Z,19.02
2022-12-15T15:15:00.485Z,20.25
2022-12-15T15:17:30.692Z,19.75
2022-12-15T15:20:04.325Z,19.77
2022-12-15T15:22:40.283Z,20.80
2022-12-15T15:25:36.146Z,20.25
2022-12-15T15:28:18.422Z,20.63
2022-12-15T15:30:57.291Z,19.48
2022-12-15T15:33:25.262Z,19.70
2022-12-15T15:36:02.575Z,20.23
2022-12-15T15:38:32.204Z,19.90
2022-12-15T15:41:01.902Z,20.25
2022-12-15T15:43:28.946Z,19.67
2022-12-15T15:46:14.938Z,21.00
2022-12-15T15:48:45.250Z,18.95
2022-12-15T15:51:12.790Z,18.80
2022-12-15T15:53:39.755Z,20.60
2022-12-15T15:56:10.104Z,21.75
2022-12-15T15:58:36.829Z,20.80
2022-12-15T16:01:09.579Z,19.30
2022-12-15T16:03:39.629Z,20.45
2022-12-15T16:06:14.033Z,20.58
2022-12-15T16:08:40.692Z,20.38
2022-12-15T16:11:12.015Z,20.00
2022-12-15T16:13:39.187Z,20.15
2022-12-15T16:16:06.410Z,19.23
2022-12-15T16:18:33.342Z,19.63
2022-12-15T16:21:00.290Z,20.90
2022-12-15T16:23:29.065Z,21.25
2022-12-15T16:26:00.128Z,19.63
2022-12-15T16:28:29.397Z,15.43
2022-12-15T16:31:01.260Z,20.80
2022-12-15T16:33:28.324Z,20.80
2022-12-15T16:35:55.004Z,22.27
2022-12-15T16:38:24.229Z,22.25
2022-12-15T16:40:51.782Z,20.67
2022-12-15T16:43:24.776Z,23.15
2022-12-15T16:45:52.932Z,41.45
2022-12-15T16:48:20.837Z,61.03
2022-12-15T16:50:52.093Z,48.58
2022-12-15T16:53:28.975Z,30.02
2022-12-15T16:55:57.751Z,36.47
2022-12-15T16:58:26.456Z,40.65
2022-12-15T17:00:56.348Z,36.85
2022-12-15T17:03:26.617Z,34.95
2022-12-15T17:05:57.398Z,33.55
2022-12-15T17:08:28.093Z,33.72
2022-12-15T17:10:55.033Z,30.30
2022-12-15T17:13:36.516Z,33.08
2022-12-15T17:16:04.276Z,30.00
2022-12-15T17:18:31.548Z,32.72
2022-12-15T17:21:12.798Z,34.20
2022-12-15T17:23:43.355Z,31.15
2022-12-15T17:26:28.672Z,32.05
2022-12-15T17:29:01.545Z,31.98
2022-12-15T17:31:34.821Z,32.25
2022-12-15T17:34:13.356Z,32.72
2022-12-15T17:36:40.034Z,32.67
2022-12-15T17:39:11.195Z,32.85
2022-12-15T17:42:03.574Z,26.58
2022-12-15T17:44:35.666Z,30.20
2022-12-15T17:47:08.223Z,34.33
2022-12-15T17:49:37.718Z,33.70
2022-12-15T17:52:29.018Z,34.35
2022-12-15T17:54:58.745Z,34.28
2022-12-15T17:57:25.660Z,34.90
2022-12-15T17:59:52.684Z,33.25
2022-12-15T18:02:22.025Z,35.30
2022-12-15T18:04:51.230Z,35.38
2022-12-15T18:07:20.647Z,34.40
2022-12-15T18:09:48.196Z,34.28
2022-12-15T18:12:24.092Z,34.13
2022-12-15T18:14:51.112Z,34.17
2022-12-15T18:17:18.988Z,30.50
2022-12-15T18:19:48.228Z,32.97
2022-12-15T18:22:23.461Z,34.50
2022-12-15T18:24:52.191Z,37.10
2022-12-15T18:27:29.061Z,36.58
2022-12-15T18:29:58.772Z,36.85
2022-12-15T18:32:29.652Z,36.35
2022-12-15T18:35:00.150Z,35.70
2022-12-15T18:37:29.376Z,33.92
2022-12-15T18:39:59.484Z,33.40
2022-12-15T18:42:30.693Z,32.15
2022-12-15T18:45:00.180Z,31.67
2022-12-15T18:47:27.552Z,31.48
2022-12-15T18:49:55.530Z,32.85
2022-12-15T18:52:26.500Z,32.83
2022-12-15T18:54:55.555Z,32.72
2022-12-15T18:57:30.000Z,33.58
2022-12-15T19:00:09.672Z,32.38
2022-12-15T19:02:36.451Z,30.15
2022-12-15T19:05:03.409Z,31.58
2022-12-15T19:07:30.447Z,31.70
2022-12-15T19:09:57.127Z,31.30
2022-12-15T19:12:29.395Z,29.92
2022-12-15T19:14:56.109Z,30.10
2022-12-15T19:17:44.420Z,30.23
2022-12-15T19:20:38.773Z,29.20
2022-12-15T19:23:09.571Z,30.02
2022-12-15T19:25:36.332Z,33.95
2022-12-15T19:28:05.762Z,53.58
2022-12-15T19:30:41.799Z,68.15
2022-12-15T19:33:09.559Z,59.35
2022-12-15T19:35:41.460Z,51.22
2022-12-15T19:40:37.706Z,40.08
2022-12-15T19:43:04.866Z,36.70
2022-12-15T19:45:36.930Z,35.63
2022-12-15T19:48:03.813Z,34.78
2022-12-15T19:50:50.612Z,30.90
2022-12-15T19:53:28.361Z,31.52
2022-12-15T19:56:01.675Z,28.13
2022-12-15T19:58:34.917Z,31.13
2022-12-15T20:01:06.474Z,30.58
2022-12-15T20:03:36.225Z,31.63
2022-12-15T20:06:14.905Z,33.13
2022-12-15T20:08:44.541Z,32.05
2022-12-15T20:11:41.091Z,33.33
2022-12-15T20:14:16.920Z,30.42
2022-12-15T20:16:44.750Z,34.25
2022-12-15T20:19:14.115Z,32.40
2022-12-15T20:21:41.613Z,34.63
2022-12-15T20:24:16.130Z,30.75
2022-12-15T20:26:43.708Z,32.38
2022-12-15T20:29:26.155Z,33.58
2022-12-15T20:31:56.480Z,32.53
2022-12-15T20:34:23.893Z,31.67
2022-12-15T20:36:53.005Z,30.75
2022-12-15T20:39:43.208Z,33.28
2022-12-15T20:42:14.748Z,33.97
2022-12-15T20:44:41.499Z,32.55
2022-12-15T20:47:23.365Z,32.53
2022-12-15T20:49:51.522Z,29.90
2022-12-15T20:52:24.366Z,33.22
2022-12-15T20:54:54.629Z,32.88
2022-12-15T20:57:24.412Z,30.02
2022-12-15T20:59:51.230Z,31.23
2022-12-15T21:02:26.213Z,30.80
2022-12-15T21:04:55.062Z,31.10
2022-12-15T21:07:23.987Z,32.33
2022-12-15T21:09:51.621Z,31.92
2022-12-15T21:12:20.763Z,31.73
2022-12-15T21:14:48.447Z,30.02
2022-12-15T21:17:17.379Z,31.52
2022-12-15T21:19:44.747Z,31.58
2022-12-15T21:22:23.021Z,31.15
2022-12-15T21:24:57.293Z,29.70
2022-12-15T21:27:24.054Z,30.23
2022-12-15T21:29:52.947Z,29.17
2022-12-15T21:32:20.676Z,28.23
2022-12-15T21:34:49.885Z,30.50
2022-12-15T21:37:26.498Z,30.63
2022-12-15T21:39:58.023Z,31.17
2022-12-15T21:42:27.917Z,29.30
2022-12-15T21:44:54.544Z,30.10
2022-12-15T21:47:52.713Z,30.67
2022-12-15T21:52:51.996Z,27.50
2022-12-15T21:55:21.220Z,30.58
2022-12-15T21:57:48.024Z,30.30
2022-12-15T22:00:17.445Z,28.48
2022-12-15T22:02:45.893Z,36.13
2022-12-15T22:05:32.540Z,32.80
2022-12-15T22:08:18.383Z,33.47
2022-12-15T22:10:52.078Z,32.13
2022-12-15T22:13:22.780Z,30.88
2022-12-15T22:15:54.689Z,29.75
2022-12-15T22:18:26.776Z,29.33
2022-12-15T22:23:20.467Z,29.60
2022-12-15T22:25:54.064Z,29.08
2022-12-15T22:30:55.502Z,30.65
2022-12-15T22:33:25.588Z,33.70
2022-12-15T22:35:54.902Z,30.60
2022-12-15T22:38:24.959Z,30.27
2022-12-15T22:40:53.971Z,30.88
2022-12-15T22:43:41.573Z,32.60
2022-12-15T22:46:13.458Z,30.77
2022-12-15T22:51:12.887Z,26.15
2022-12-15T22:53:39.630Z,29.42
2022-12-15T22:56:29.220Z,29.77
2022-12-15T22:59:02.610Z,32.20
2022-12-15T23:01:29.866Z,31.17
2022-12-15T23:04:01.165Z,28.67
2022-12-15T23:06:30.220Z,23.80
2022-12-15T23:08:56.851Z,30.83
2022-12-15T23:11:39.540Z,28.92
2022-12-15T23:14:17.103Z,27.65
2022-12-15T23:16:46.511Z,27.23
2022-12-15T23:19:27.551Z,29.30
2022-12-15T23:21:54.669Z,28.30
2022-12-15T23:24:21.245Z,28.08
2022-12-15T23:26:49.757Z,26.77
2022-12-15T23:29:18.779Z,26.77
2022-12-15T23:31:45.462Z,26.35
2022-12-15T23:34:12.284Z,27.30
2022-12-15T23:36:41.014Z,26.80
2022-12-15T23:39:07.656Z,28.23
2022-12-15T23:41:35.252Z,28.10
2022-12-15T23:44:01.836Z,26.40
2022-12-15T23:46:28.445Z,27.67
2022-12-15T23:48:55.134Z,24.98
2022-12-15T23:51:24.292Z,27.13
2022-12-15T23:53:51.014Z,23.90
2022-12-15T23:56:23.736Z,26.58
2022-12-15T23:59:00.538Z,26.23
